sensor_id;sensor_type;location;lat;lon;timestamp;pressure;altitude;pressure_sealevel;temperature;humidity
78582;BME280;67878;46.242;5.974;2023-12-07T00:00:01;95536.78;;;19.37;45.80
78582;BME280;67878;46.242;5.974;2023-12-07T00:02:27;95541.72;;;19.40;45.73
78582;BME280;67878;46.242;5.974;2023-12-07T00:04:52;95536.47;;;19.40;45.60
78582;BME280;67878;46.242;5.974;2023-12-07T00:07:18;95534.53;;;19.42;45.78
78582;BME280;67878;46.242;5.974;2023-12-07T00:09:43;95531.22;;;19.40;45.63
78582;BME280;67878;46.242;5.974;2023-12-07T00:12:09;95535.50;;;19.41;45.61
78582;BME280;67878;46.242;5.974;2023-12-07T00:14:34;95540.25;;;19.37;45.61
78582;BME280;67878;46.242;5.974;2023-12-07T00:16:59;95536.34;;;19.41;45.62
78582;BME280;67878;46.242;5.974;2023-12-07T00:19:25;95536.34;;;19.41;45.84
78582;BME280;67878;46.242;5.974;2023-12-07T00:21:50;95532.91;;;19.41;45.78
78582;BME280;67878;46.242;5.974;2023-12-07T00:24:16;95528.63;;;19.40;46.02
78582;BME280;67878;46.242;5.974;2023-12-07T00:26:41;95535.50;;;19.41;45.94
78582;BME280;67878;46.242;5.974;2023-12-07T00:29:06;95539.09;;;19.40;45.99
78582;BME280;67878;46.242;5.974;2023-12-07T00:31:32;95541.72;;;19.40;45.88
78582;BME280;67878;46.242;5.974;2023-12-07T00:33:57;95543.50;;;19.39;46.17
78582;BME280;67878;46.242;5.974;2023-12-07T00:36:22;95548.75;;;19.39;46.26
78582;BME280;67878;46.242;5.974;2023-12-07T00:38:48;95549.56;;;19.40;46.11
78582;BME280;67878;46.242;5.974;2023-12-07T00:41:13;95544.31;;;19.40;46.25
78582;BME280;67878;46.242;5.974;2023-12-07T00:43:39;95546.13;;;19.39;46.35
78582;BME280;67878;46.242;5.974;2023-12-07T00:46:07;95560.03;;;19.40;46.18
78582;BME280;67878;46.242;5.974;2023-12-07T00:48:32;95552.03;;;19.41;46.00
78582;BME280;67878;46.242;5.974;2023-12-07T00:50:58;95542.56;;;19.40;45.88
78582;BME280;67878;46.242;5.974;2023-12-07T00:53:23;95542.56;;;19.40;45.95
78582;BME280;67878;46.242;5.974;2023-12-07T00:55:48;95535.66;;;19.39;45.72
78582;BME280;67878;46.242;5.974;2023-12-07T00:58:15;95535.66;;;19.39;45.81
78582;BME280;67878;46.242;5.974;2023-12-07T01:00:40;95540.06;;;19.39;45.73
78582;BME280;67878;46.242;5.974;2023-12-07T01:03:05;95532.22;;;19.39;45.66
78582;BME280;67878;46.242;5.974;2023-12-07T01:05:31;95542.69;;;19.39;45.61
78582;BME280;67878;46.242;5.974;2023-12-07T01:07:56;95545.19;;;19.40;45.89
78582;BME280;67878;46.242;5.974;2023-12-07T01:10:22;95544.19;;;19.41;45.99
78582;BME280;67878;46.242;5.974;2023-12-07T01:12:47;95552.03;;;19.41;45.92
78582;BME280;67878;46.242;5.974;2023-12-07T01:15:12;95545.81;;;19.42;45.92
78582;BME280;67878;46.242;5.974;2023-12-07T01:17:38;95540.56;;;19.42;45.88
78582;BME280;67878;46.242;5.974;2023-12-07T01:20:05;95541.56;;;19.41;45.89
78582;BME280;67878;46.242;5.974;2023-12-07T01:22:37;95543.19;;;19.42;45.85
78582;BME280;67878;46.242;5.974;2023-12-07T01:25:02;95550.91;;;19.44;45.94
78582;BME280;67878;46.242;5.974;2023-12-07T01:27:28;95551.91;;;19.43;45.64
78582;BME280;67878;46.242;5.974;2023-12-07T01:29:53;95558.78;;;19.44;45.96
78582;BME280;67878;46.242;5.974;2023-12-07T01:32:19;95564.81;;;19.44;45.98
78582;BME280;67878;46.242;5.974;2023-12-07T01:34:44;95575.47;;;19.43;45.93
78582;BME280;67878;46.242;5.974;2023-12-07T01:37:10;95568.44;;;19.43;45.69
78582;BME280;67878;46.242;5.974;2023-12-07T01:39:35;95562.38;;;19.43;45.97
78582;BME280;67878;46.242;5.974;2023-12-07T01:42:01;95566.78;;;19.42;45.75
78582;BME280;67878;46.242;5.974;2023-12-07T01:44:26;95565.97;;;19.42;45.76
78582;BME280;67878;46.242;5.974;2023-12-07T01:46:53;95569.38;;;19.42;45.62
78582;BME280;67878;46.242;5.974;2023-12-07T01:49:19;95571.38;;;19.40;46.06
78582;BME280;67878;46.242;5.974;2023-12-07T01:51:45;95567.09;;;19.39;45.54
78582;BME280;67878;46.242;5.974;2023-12-07T01:54:11;95572.19;;;19.41;45.72
78582;BME280;67878;46.242;5.974;2023-12-07T01:56:37;95568.88;;;19.39;45.62
78582;BME280;67878;46.242;5.974;2023-12-07T01:59:02;95567.09;;;19.39;45.59
78582;BME280;67878;46.242;5.974;2023-12-07T02:01:28;95571.50;;;19.39;45.64
78582;BME280;67878;46.242;5.974;2023-12-07T02:03:54;95570.69;;;19.38;45.46
78582;BME280;67878;46.242;5.974;2023-12-07T02:06:20;95576.06;;;19.37;45.58
78582;BME280;67878;46.242;5.974;2023-12-07T02:08:45;95571.69;;;19.37;45.55
78582;BME280;67878;46.242;5.974;2023-12-07T02:11:11;95568.22;;;19.37;45.48
78582;BME280;67878;46.242;5.974;2023-12-07T02:13:37;95566.59;;;19.36;45.27
78582;BME280;67878;46.242;5.974;2023-12-07T02:16:09;95573.63;;;19.35;45.23
78582;BME280;67878;46.242;5.974;2023-12-07T02:18:45;95570.19;;;19.35;45.25
78582;BME280;67878;46.242;5.974;2023-12-07T02:21:18;95575.44;;;19.35;45.07
78582;BME280;67878;46.242;5.974;2023-12-07T02:23:46;95568.38;;;19.35;45.22
78582;BME280;67878;46.242;5.974;2023-12-07T02:26:13;95578.19;;;19.33;45.19
78582;BME280;67878;46.242;5.974;2023-12-07T02:28:40;95576.56;;;19.32;45.19
78582;BME280;67878;46.242;5.974;2023-12-07T02:31:05;95583.59;;;19.32;45.29
78582;BME280;67878;46.242;5.974;2023-12-07T02:33:31;95584.41;;;19.32;45.12
78582;BME280;67878;46.242;5.974;2023-12-07T02:35:56;95578.50;;;19.30;45.28
78582;BME280;67878;46.242;5.974;2023-12-07T02:38:22;95581.94;;;19.31;45.13
78582;BME280;67878;46.242;5.974;2023-12-07T02:40:52;95577.19;;;19.26;45.26
78582;BME280;67878;46.242;5.974;2023-12-07T02:43:18;95579.31;;;19.31;45.20
78582;BME280;67878;46.242;5.974;2023-12-07T02:45:45;95581.13;;;19.30;45.35
78582;BME280;67878;46.242;5.974;2023-12-07T02:48:10;95572.44;;;19.30;44.95
78582;BME280;67878;46.242;5.974;2023-12-07T02:50:36;95572.44;;;19.30;45.13
78582;BME280;67878;46.242;5.974;2023-12-07T02:53:01;95570.78;;;19.29;45.20
78582;BME280;67878;46.242;5.974;2023-12-07T02:55:27;95563.91;;;19.27;44.93
78582;BME280;67878;46.242;5.974;2023-12-07T02:57:52;95567.34;;;19.28;45.24
78582;BME280;67878;46.242;5.974;2023-12-07T03:00:18;95560.47;;;19.27;45.05
78582;BME280;67878;46.242;5.974;2023-12-07T03:02:43;95565.72;;;19.27;45.08
78582;BME280;67878;46.242;5.974;2023-12-07T03:05:09;95565.72;;;19.27;45.25
78582;BME280;67878;46.242;5.974;2023-12-07T03:07:34;95563.91;;;19.27;45.00
78582;BME280;67878;46.242;5.974;2023-12-07T03:10:00;95558.84;;;19.26;45.08
78582;BME280;67878;46.242;5.974;2023-12-07T03:12:25;95559.81;;;19.25;45.08
78582;BME280;67878;46.242;5.974;2023-12-07T03:14:51;95564.91;;;19.26;45.08
78582;BME280;67878;46.242;5.974;2023-12-07T03:17:17;95557.19;;;19.25;45.02
78582;BME280;67878;46.242;5.974;2023-12-07T03:19:42;95561.59;;;19.24;45.03
78582;BME280;67878;46.242;5.974;2023-12-07T03:22:08;95562.41;;;19.25;44.97
78582;BME280;67878;46.242;5.974;2023-12-07T03:24:37;95557.19;;;19.25;45.09
78582;BME280;67878;46.242;5.974;2023-12-07T03:27:04;95556.38;;;19.24;44.96
78582;BME280;67878;46.242;5.974;2023-12-07T03:29:30;95551.94;;;19.25;44.92
78582;BME280;67878;46.242;5.974;2023-12-07T03:31:56;95554.56;;;19.25;45.05
78582;BME280;67878;46.242;5.974;2023-12-07T03:34:21;95551.94;;;19.25;44.92
78582;BME280;67878;46.242;5.974;2023-12-07T03:36:48;95543.41;;;19.23;44.92
78582;BME280;67878;46.242;5.974;2023-12-07T03:39:14;95542.47;;;19.24;45.01
78582;BME280;67878;46.242;5.974;2023-12-07T03:41:40;95555.56;;;19.24;44.85
78582;BME280;67878;46.242;5.974;2023-12-07T03:44:06;95552.13;;;19.23;45.08
78582;BME280;67878;46.242;5.974;2023-12-07T03:46:32;95552.13;;;19.23;44.96
78582;BME280;67878;46.242;5.974;2023-12-07T03:48:57;95561.75;;;19.23;44.86
78582;BME280;67878;46.242;5.974;2023-12-07T03:51:22;95565.22;;;19.23;44.91
78582;BME280;67878;46.242;5.974;2023-12-07T03:53:48;95565.34;;;19.22;44.92
78582;BME280;67878;46.242;5.974;2023-12-07T03:56:29;95560.13;;;19.22;44.79
78582;BME280;67878;46.242;5.974;2023-12-07T03:58:55;95557.50;;;19.22;44.82
78582;BME280;67878;46.242;5.974;2023-12-07T04:01:26;95560.13;;;19.22;44.87
78582;BME280;67878;46.242;5.974;2023-12-07T04:03:52;95557.50;;;19.22;44.57
78582;BME280;67878;46.242;5.974;2023-12-07T04:06:18;95558.47;;;19.21;44.79
78582;BME280;67878;46.242;5.974;2023-12-07T04:08:44;95549.66;;;19.22;44.88
78582;BME280;67878;46.242;5.974;2023-12-07T04:11:10;95559.31;;;19.21;44.78
78582;BME280;67878;46.242;5.974;2023-12-07T04:13:36;95555.69;;;19.22;44.93
78582;BME280;67878;46.242;5.974;2023-12-07T04:16:01;95555.69;;;19.22;44.99
78582;BME280;67878;46.242;5.974;2023-12-07T04:18:28;95555.69;;;19.22;44.96
78582;BME280;67878;46.242;5.974;2023-12-07T04:20:53;95547.84;;;19.22;44.83
78582;BME280;67878;46.242;5.974;2023-12-07T04:23:19;95556.50;;;19.23;44.81
78582;BME280;67878;46.242;5.974;2023-12-07T04:25:44;95556.50;;;19.23;44.91
78582;BME280;67878;46.242;5.974;2023-12-07T04:28:10;95557.34;;;19.23;45.01
78582;BME280;67878;46.242;5.974;2023-12-07T04:30:35;95551.28;;;19.23;44.71
78582;BME280;67878;46.242;5.974;2023-12-07T04:33:00;95558.31;;;19.22;44.85
78582;BME280;67878;46.242;5.974;2023-12-07T04:35:26;95558.31;;;19.22;44.92
78582;BME280;67878;46.242;5.974;2023-12-07T04:37:53;95563.56;;;19.22;44.91
78582;BME280;67878;46.242;5.974;2023-12-07T04:40:19;95573.88;;;19.24;44.96
78582;BME280;67878;46.242;5.974;2023-12-07T04:42:45;95568.66;;;19.24;45.15
78582;BME280;67878;46.242;5.974;2023-12-07T04:45:11;95565.72;;;19.27;44.99
78582;BME280;67878;46.242;5.974;2023-12-07T04:47:36;95575.19;;;19.28;44.86
78582;BME280;67878;46.242;5.974;2023-12-07T04:50:02;95563.59;;;19.31;44.92
78582;BME280;67878;46.242;5.974;2023-12-07T04:52:27;95559.84;;;19.33;44.85
78582;BME280;67878;46.242;5.974;2023-12-07T04:54:53;95555.28;;;19.35;44.79
78582;BME280;67878;46.242;5.974;2023-12-07T04:57:18;95559.41;;;19.38;44.90
78582;BME280;67878;46.242;5.974;2023-12-07T04:59:43;95556.59;;;19.39;44.71
78582;BME280;67878;46.242;5.974;2023-12-07T05:02:18;95556.59;;;19.39;44.86
78582;BME280;67878;46.242;5.974;2023-12-07T05:04:44;95560.34;;;19.37;44.80
78582;BME280;67878;46.242;5.974;2023-12-07T05:07:11;95570.69;;;19.38;44.94
78582;BME280;67878;46.242;5.974;2023-12-07T05:09:37;95562.97;;;19.37;44.88
78582;BME280;67878;46.242;5.974;2023-12-07T05:12:03;95567.41;;;19.36;44.91
78582;BME280;67878;46.242;5.974;2023-12-07T05:14:30;95566.59;;;19.36;44.81
78582;BME280;67878;46.242;5.974;2023-12-07T05:16:56;95565.75;;;19.35;45.06
78582;BME280;67878;46.242;5.974;2023-12-07T05:19:25;95568.38;;;19.35;44.76
78582;BME280;67878;46.242;5.974;2023-12-07T05:21:51;95567.72;;;19.33;44.68
78582;BME280;67878;46.242;5.974;2023-12-07T05:24:16;95562.47;;;19.33;44.68
78582;BME280;67878;46.242;5.974;2023-12-07T05:26:43;95558.06;;;19.34;44.92
78582;BME280;67878;46.242;5.974;2023-12-07T05:29:08;95561.66;;;19.33;44.61
78582;BME280;67878;46.242;5.974;2023-12-07T05:31:35;95563.47;;;19.32;44.58
78582;BME280;67878;46.242;5.974;2023-12-07T05:34:01;95559.19;;;19.31;45.02
78582;BME280;67878;46.242;5.974;2023-12-07T05:36:26;95560.84;;;19.32;44.75
78582;BME280;67878;46.242;5.974;2023-12-07T05:38:52;95561.78;;;19.31;44.63
78582;BME280;67878;46.242;5.974;2023-12-07T05:41:17;95557.56;;;19.30;44.59
78582;BME280;67878;46.242;5.974;2023-12-07T05:43:43;95561.16;;;19.29;44.63
78582;BME280;67878;46.242;5.974;2023-12-07T05:46:08;95570.78;;;19.29;44.46
78582;BME280;67878;46.242;5.974;2023-12-07T05:48:34;95570.78;;;19.29;44.66
78582;BME280;67878;46.242;5.974;2023-12-07T05:51:01;95573.72;;;19.25;44.56
78582;BME280;67878;46.242;5.974;2023-12-07T05:53:27;95565.03;;;19.25;44.42
78582;BME280;67878;46.242;5.974;2023-12-07T05:55:52;95566.69;;;19.26;44.46
78582;BME280;67878;46.242;5.974;2023-12-07T05:58:18;95571.09;;;19.25;44.57
78582;BME280;67878;46.242;5.974;2023-12-07T06:00:43;95578.13;;;19.25;44.81
78582;BME280;67878;46.242;5.974;2023-12-07T06:03:09;95574.69;;;19.24;44.39
78582;BME280;67878;46.242;5.974;2023-12-07T06:05:37;95566.84;;;19.24;44.45
78582;BME280;67878;46.242;5.974;2023-12-07T06:08:03;95565.72;;;19.27;44.73
78582;BME280;67878;46.242;5.974;2023-12-07T06:10:29;95568.03;;;19.30;44.67
78582;BME280;67878;46.242;5.974;2023-12-07T06:12:55;95562.78;;;19.30;44.52
78582;BME280;67878;46.242;5.974;2023-12-07T06:15:22;95569.34;;;19.34;44.66
78582;BME280;67878;46.242;5.974;2023-12-07T06:17:48;95573.44;;;19.37;44.64
78582;BME280;67878;46.242;5.974;2023-12-07T06:20:13;95574.28;;;19.37;44.56
78582;BME280;67878;46.242;5.974;2023-12-07T06:22:38;95578.53;;;19.38;44.26
78582;BME280;67878;46.242;5.974;2023-12-07T06:25:04;95581.97;;;19.39;44.64
78582;BME280;67878;46.242;5.974;2023-12-07T06:27:30;95587.38;;;19.37;44.40
78582;BME280;67878;46.242;5.974;2023-12-07T06:29:55;95584.91;;;19.36;44.37
78582;BME280;67878;46.242;5.974;2023-12-07T06:32:21;95579.81;;;19.34;44.42
78582;BME280;67878;46.242;5.974;2023-12-07T06:34:46;95581.78;;;19.32;44.41
78582;BME280;67878;46.242;5.974;2023-12-07T06:37:12;95589.66;;;19.32;44.53
78582;BME280;67878;46.242;5.974;2023-12-07T06:39:38;95591.44;;;19.32;44.58
78582;BME280;67878;46.242;5.974;2023-12-07T06:42:04;95595.84;;;19.31;44.56
78582;BME280;67878;46.242;5.974;2023-12-07T06:44:29;95588.97;;;19.30;44.74
78582;BME280;67878;46.242;5.974;2023-12-07T06:46:55;95588.97;;;19.30;44.78
78582;BME280;67878;46.242;5.974;2023-12-07T06:49:20;95599.44;;;19.30;44.53
78582;BME280;67878;46.242;5.974;2023-12-07T06:51:51;95599.44;;;19.30;44.67
78582;BME280;67878;46.242;5.974;2023-12-07T06:54:16;95596.00;;;19.30;44.72
78582;BME280;67878;46.242;5.974;2023-12-07T06:56:42;95598.78;;;19.28;44.80
78582;BME280;67878;46.242;5.974;2023-12-07T06:59:07;95602.19;;;19.29;44.80
78582;BME280;67878;46.242;5.974;2023-12-07T07:01:34;95590.91;;;19.28;44.65
78582;BME280;67878;46.242;5.974;2023-12-07T07:04:00;95583.88;;;19.29;44.89
78582;BME280;67878;46.242;5.974;2023-12-07T07:06:25;95586.66;;;19.27;44.77
78582;BME280;67878;46.242;5.974;2023-12-07T07:08:50;95579.78;;;19.26;44.88
78582;BME280;67878;46.242;5.974;2023-12-07T07:11:16;95583.88;;;19.29;45.27
78582;BME280;67878;46.242;5.974;2023-12-07T07:13:41;95582.91;;;19.30;44.91
78582;BME280;67878;46.242;5.974;2023-12-07T07:16:08;95589.13;;;19.29;44.82
78582;BME280;67878;46.242;5.974;2023-12-07T07:18:33;95581.25;;;19.29;45.09
78582;BME280;67878;46.242;5.974;2023-12-07T07:20:58;95588.28;;;19.28;44.93
78582;BME280;67878;46.242;5.974;2023-12-07T07:23:24;95583.22;;;19.26;44.74
78582;BME280;67878;46.242;5.974;2023-12-07T07:25:49;95593.72;;;19.26;44.65
78582;BME280;67878;46.242;5.974;2023-12-07T07:28:15;95586.00;;;19.25;44.57
78582;BME280;67878;46.242;5.974;2023-12-07T07:30:40;95583.53;;;19.23;44.33
78582;BME280;67878;46.242;5.974;2023-12-07T07:33:06;95584.34;;;19.24;44.13
78582;BME280;67878;46.242;5.974;2023-12-07T07:35:32;95586.00;;;19.25;44.16
78582;BME280;67878;46.242;5.974;2023-12-07T07:37:57;95590.41;;;19.24;44.05
78582;BME280;67878;46.242;5.974;2023-12-07T07:40:22;95593.03;;;19.24;44.15
78582;BME280;67878;46.242;5.974;2023-12-07T07:42:49;95585.03;;;19.26;43.83
78582;BME280;67878;46.242;5.974;2023-12-07T07:45:15;95586.81;;;19.25;43.88
78582;BME280;67878;46.242;5.974;2023-12-07T07:47:41;95584.19;;;19.25;43.70
78582;BME280;67878;46.242;5.974;2023-12-07T07:50:07;95579.13;;;19.24;43.65
78582;BME280;67878;46.242;5.974;2023-12-07T07:52:33;95578.31;;;19.23;43.72
78582;BME280;67878;46.242;5.974;2023-12-07T07:55:00;95578.44;;;19.22;43.69
78582;BME280;67878;46.242;5.974;2023-12-07T07:57:26;95574.19;;;19.21;43.48
78582;BME280;67878;46.242;5.974;2023-12-07T07:59:51;95574.03;;;19.22;43.54
78582;BME280;67878;46.242;5.974;2023-12-07T08:02:17;95570.59;;;19.22;43.45
78582;BME280;67878;46.242;5.974;2023-12-07T08:04:45;95565.34;;;19.22;43.40
78582;BME280;67878;46.242;5.974;2023-12-07T08:07:11;95548.81;;;19.21;43.55
78582;BME280;67878;46.242;5.974;2023-12-07T08:09:37;95540.00;;;19.22;43.42
78582;BME280;67878;46.242;5.974;2023-12-07T08:12:03;95535.56;;;19.23;43.51
78582;BME280;67878;46.242;5.974;2023-12-07T08:14:29;95532.50;;;19.27;43.22
78582;BME280;67878;46.242;5.974;2023-12-07T08:16:54;95545.28;;;19.31;42.92
78582;BME280;67878;46.242;5.974;2023-12-07T08:19:21;95547.25;;;19.37;42.48
78582;BME280;67878;46.242;5.974;2023-12-07T08:21:48;95529.16;;;19.43;41.93
78582;BME280;67878;46.242;5.974;2023-12-07T08:24:15;95532.25;;;19.47;41.41
78582;BME280;67878;46.242;5.974;2023-12-07T08:26:40;95525.91;;;19.49;41.50
78582;BME280;67878;46.242;5.974;2023-12-07T08:29:06;95534.44;;;19.52;42.04
78582;BME280;67878;46.242;5.974;2023-12-07T08:31:31;95536.72;;;19.55;42.44
78582;BME280;67878;46.242;5.974;2023-12-07T08:33:57;95543.44;;;19.57;42.47
78582;BME280;67878;46.242;5.974;2023-12-07T08:36:22;95549.03;;;19.62;42.59
78582;BME280;67878;46.242;5.974;2023-12-07T08:38:48;95533.16;;;19.64;42.57
78582;BME280;67878;46.242;5.974;2023-12-07T08:41:13;95535.66;;;19.65;42.53
78582;BME280;67878;46.242;5.974;2023-12-07T08:43:39;95531.06;;;19.67;42.56
78582;BME280;67878;46.242;5.974;2023-12-07T08:46:05;95525.19;;;19.65;42.38
78582;BME280;67878;46.242;5.974;2023-12-07T08:48:33;95518.78;;;19.68;42.23
78582;BME280;67878;46.242;5.974;2023-12-07T08:50:59;95517.97;;;19.67;42.39
78582;BME280;67878;46.242;5.974;2023-12-07T08:53:24;95513.53;;;19.68;42.32
78582;BME280;67878;46.242;5.974;2023-12-07T08:55:50;95509.97;;;19.69;42.20
78582;BME280;67878;46.242;5.974;2023-12-07T08:58:16;95510.09;;;19.67;42.34
78582;BME280;67878;46.242;5.974;2023-12-07T09:00:41;95515.34;;;19.67;42.32
78582;BME280;67878;46.242;5.974;2023-12-07T09:03:07;95515.34;;;19.67;42.43
78582;BME280;67878;46.242;5.974;2023-12-07T09:05:32;95517.16;;;19.67;42.23
78582;BME280;67878;46.242;5.974;2023-12-07T09:07:58;95520.59;;;19.67;42.35
78582;BME280;67878;46.242;5.974;2023-12-07T09:10:23;95518.94;;;19.66;42.10
78582;BME280;67878;46.242;5.974;2023-12-07T09:12:49;95517.16;;;19.67;42.40
78582;BME280;67878;46.242;5.974;2023-12-07T09:15:14;95513.72;;;19.66;42.07
78582;BME280;67878;46.242;5.974;2023-12-07T09:17:41;95512.91;;;19.66;42.11
78582;BME280;67878;46.242;5.974;2023-12-07T09:20:08;95512.72;;;19.67;42.13
78582;BME280;67878;46.242;5.974;2023-12-07T09:22:39;95522.25;;;19.68;41.69
78582;BME280;67878;46.242;5.974;2023-12-07T09:25:06;95521.25;;;19.69;41.90
78582;BME280;67878;46.242;5.974;2023-12-07T09:27:39;95517.81;;;19.69;41.78
78582;BME280;67878;46.242;5.974;2023-12-07T09:30:08;95528.31;;;19.69;41.60
78582;BME280;67878;46.242;5.974;2023-12-07T09:32:44;95531.59;;;19.71;41.46
78582;BME280;67878;46.242;5.974;2023-12-07T09:35:10;95519.31;;;19.72;41.71
78582;BME280;67878;46.242;5.974;2023-12-07T09:37:45;95525.34;;;19.72;41.37
78582;BME280;67878;46.242;5.974;2023-12-07T09:40:18;95529.59;;;19.73;41.19
78582;BME280;67878;46.242;5.974;2023-12-07T09:42:45;95526.03;;;19.74;41.70
78582;BME280;67878;46.242;5.974;2023-12-07T09:45:11;95513.06;;;19.73;41.54
78582;BME280;67878;46.242;5.974;2023-12-07T09:47:37;95512.94;;;19.74;41.65
78582;BME280;67878;46.242;5.974;2023-12-07T09:50:05;95513.06;;;19.73;41.47
78582;BME280;67878;46.242;5.974;2023-12-07T09:52:31;95510.44;;;19.73;41.24
78582;BME280;67878;46.242;5.974;2023-12-07T09:54:56;95509.63;;;19.72;41.51
78582;BME280;67878;46.242;5.974;2023-12-07T09:57:22;95514.88;;;19.72;41.48
78582;BME280;67878;46.242;5.974;2023-12-07T09:59:48;95521.75;;;19.73;41.27
78582;BME280;67878;46.242;5.974;2023-12-07T10:02:13;95513.88;;;19.73;41.44
78582;BME280;67878;46.242;5.974;2023-12-07T10:04:39;95518.16;;;19.74;41.26
78582;BME280;67878;46.242;5.974;2023-12-07T10:07:05;95519.81;;;19.75;41.29
78582;BME280;67878;46.242;5.974;2023-12-07T10:09:37;95520.63;;;19.76;41.31
78582;BME280;67878;46.242;5.974;2023-12-07T10:12:04;95514.56;;;19.75;41.12
78582;BME280;67878;46.242;5.974;2023-12-07T10:14:30;95507.69;;;19.74;41.26
78582;BME280;67878;46.242;5.974;2023-12-07T10:16:56;95505.72;;;19.76;41.27
78582;BME280;67878;46.242;5.974;2023-12-07T10:19:22;95498.84;;;19.75;41.10
78582;BME280;67878;46.242;5.974;2023-12-07T10:21:48;95496.88;;;19.77;40.98
78582;BME280;67878;46.242;5.974;2023-12-07T10:24:16;95501.31;;;19.77;41.40
78582;BME280;67878;46.242;5.974;2023-12-07T10:26:43;95501.13;;;19.78;41.05
78582;BME280;67878;46.242;5.974;2023-12-07T10:29:09;95493.28;;;19.78;41.23
78582;BME280;67878;46.242;5.974;2023-12-07T10:31:36;95497.69;;;19.78;41.12
78582;BME280;67878;46.242;5.974;2023-12-07T10:34:02;95495.88;;;19.78;41.03
78582;BME280;67878;46.242;5.974;2023-12-07T10:36:28;95492.28;;;19.79;41.32
78582;BME280;67878;46.242;5.974;2023-12-07T10:38:54;95488.84;;;19.79;41.23
78582;BME280;67878;46.242;5.974;2023-12-07T10:41:21;95490.66;;;19.78;41.01
78582;BME280;67878;46.242;5.974;2023-12-07T10:44:06;95488.03;;;19.78;40.74
78582;BME280;67878;46.242;5.974;2023-12-07T10:46:33;95486.22;;;19.79;41.15
78582;BME280;67878;46.242;5.974;2023-12-07T10:49:07;95480.97;;;19.79;41.00
78582;BME280;67878;46.242;5.974;2023-12-07T10:51:45;95476.88;;;19.76;40.67
78582;BME280;67878;46.242;5.974;2023-12-07T10:54:16;95484.41;;;19.79;40.88
78582;BME280;67878;46.242;5.974;2023-12-07T10:56:48;95483.59;;;19.79;40.66
78582;BME280;67878;46.242;5.974;2023-12-07T10:59:16;95481.66;;;19.81;40.73
78582;BME280;67878;46.242;5.974;2023-12-07T11:01:42;95483.47;;;19.80;40.84
78582;BME280;67878;46.242;5.974;2023-12-07T11:04:13;95476.41;;;19.81;40.58
78582;BME280;67878;46.242;5.974;2023-12-07T11:06:40;95476.41;;;19.81;40.61
78582;BME280;67878;46.242;5.974;2023-12-07T11:09:13;95472.97;;;19.80;40.61
78582;BME280;67878;46.242;5.974;2023-12-07T11:11:45;95472.97;;;19.80;40.65
78582;BME280;67878;46.242;5.974;2023-12-07T11:14:12;95468.56;;;19.81;40.41
78582;BME280;67878;46.242;5.974;2023-12-07T11:16:43;95460.84;;;19.79;40.50
78582;BME280;67878;46.242;5.974;2023-12-07T11:22:06;95456.59;;;19.78;40.37
78582;BME280;67878;46.242;5.974;2023-12-07T11:24:32;95463.47;;;19.79;40.65
78582;BME280;67878;46.242;5.974;2023-12-07T11:26:58;95455.59;;;19.79;40.50
78582;BME280;67878;46.242;5.974;2023-12-07T11:29:24;95456.59;;;19.78;40.46
78582;BME280;67878;46.242;5.974;2023-12-07T11:31:50;95461.81;;;19.78;40.63
78582;BME280;67878;46.242;5.974;2023-12-07T11:37:02;95451.34;;;19.78;40.56
78582;BME280;67878;46.242;5.974;2023-12-07T11:39:28;95442.66;;;19.78;40.67
78582;BME280;67878;46.242;5.974;2023-12-07T11:41:55;95440.06;;;19.78;40.71
78582;BME280;67878;46.242;5.974;2023-12-07T11:44:32;95438.41;;;19.77;40.47
78582;BME280;67878;46.242;5.974;2023-12-07T11:46:58;95432.34;;;19.76;40.58
78582;BME280;67878;46.242;5.974;2023-12-07T11:49:23;95421.84;;;19.76;40.39
78582;BME280;67878;46.242;5.974;2023-12-07T11:51:49;95416.59;;;19.76;40.44
78582;BME280;67878;46.242;5.974;2023-12-07T11:54:15;95417.47;;;19.77;40.71
78582;BME280;67878;46.242;5.974;2023-12-07T11:56:42;95412.38;;;19.75;40.75
78582;BME280;67878;46.242;5.974;2023-12-07T11:59:07;95409.59;;;19.77;40.59
78582;BME280;67878;46.242;5.974;2023-12-07T12:01:33;95406.97;;;19.77;40.64
78582;BME280;67878;46.242;5.974;2023-12-07T12:03:59;95399.13;;;19.77;41.13
78582;BME280;67878;46.242;5.974;2023-12-07T12:06:24;95400.75;;;19.78;40.82
78582;BME280;67878;46.242;5.974;2023-12-07T12:08:51;95391.25;;;19.77;40.87
78582;BME280;67878;46.242;5.974;2023-12-07T12:11:17;95389.44;;;19.77;40.81
78582;BME280;67878;46.242;5.974;2023-12-07T12:13:45;95383.22;;;19.78;40.69
78582;BME280;67878;46.242;5.974;2023-12-07T12:16:11;95377.16;;;19.78;41.06
78582;BME280;67878;46.242;5.974;2023-12-07T12:18:37;95373.53;;;19.79;40.73
78582;BME280;67878;46.242;5.974;2023-12-07T12:21:03;95371.72;;;19.79;40.79
78582;BME280;67878;46.242;5.974;2023-12-07T12:23:29;95371.72;;;19.79;40.95
78582;BME280;67878;46.242;5.974;2023-12-07T12:25:55;95369.44;;;19.76;40.92
78582;BME280;67878;46.242;5.974;2023-12-07T12:28:20;95376.66;;;19.74;40.84
78582;BME280;67878;46.242;5.974;2023-12-07T12:30:48;95379.44;;;19.73;41.10
78582;BME280;67878;46.242;5.974;2023-12-07T12:33:13;95375.34;;;19.70;41.01
78582;BME280;67878;46.242;5.974;2023-12-07T12:35:40;95369.44;;;19.68;41.15
78582;BME280;67878;46.242;5.974;2023-12-07T12:38:12;95367.00;;;19.66;41.14
78582;BME280;67878;46.242;5.974;2023-12-07T12:40:38;95367.97;;;19.65;41.19
78582;BME280;67878;46.242;5.974;2023-12-07T12:43:04;95369.09;;;19.63;40.99
78582;BME280;67878;46.242;5.974;2023-12-07T12:45:30;95369.09;;;19.63;41.16
78582;BME280;67878;46.242;5.974;2023-12-07T12:47:57;95370.06;;;19.62;41.27
78582;BME280;67878;46.242;5.974;2023-12-07T12:50:37;95362.38;;;19.60;41.31
78582;BME280;67878;46.242;5.974;2023-12-07T12:53:05;95355.31;;;19.61;41.40
78582;BME280;67878;46.242;5.974;2023-12-07T12:55:40;95352.84;;;19.59;41.43
78582;BME280;67878;46.242;5.974;2023-12-07T12:58:08;95349.41;;;19.59;41.59
78582;BME280;67878;46.242;5.974;2023-12-07T13:00:35;95345.00;;;19.59;41.50